Airfield :
LOGIN :

Register | Disclaimer

   EN    FR    IT 

 










Legend :    VFR   Marginal VFR   IFR   Intensive IFR   Very Intensive IFR
Visi :
Ceiling :
>= 8 km
>= 3000ft
5 to 8 km
1000 to 3000 ft
1500m to 5 km
500 to 1000 ft
800 to 1500m
200 to 500 ft
< 800m
< 200 ft
Symbols :   Thunderstorms  Fog  Heavy snow  Heavy precipitations  Wind > 20 kt
SIGMETs :     Misc.  Thunderstorms  Icing  Turbulence  Mountain Waves  Volcanic Ashes






- Airport Elevation : 9 ft
- IATA code : MIR


DTMB - Habib Bourguliba Int. Monastir

CURRENT METAR :
  • 090330Z 17004KT 6000 NSC 16/14 Q1018 NOSIG

EXPIRED METARs :
  • 090300Z 19003KT CAVOK 16/13 Q1018 NOSIG
  • 090230Z 19003KT CAVOK 17/14 Q1018 NOSIG
  • 090200Z 15004KT 110V170 CAVOK 17/14 Q1018 NOSIG
  • 090130Z 00000KT CAVOK 17/14 Q1018 NOSIG
  • 090100Z 25003KT CAVOK 17/14 Q1019 NOSIG

TAF TAF DTMB
Valid from the 09 at 00:00 until the 10 at 00:00 UTC


082300Z 0900/0924 07004KT CAVOK
BECMG 0907/0909 15007KT
BECMG 0910/0912 11020KT
BECMG 0918/0920 16010KT



MET'MAP, your aeronautical weather chart ! - Copyright ORBIFLY December 2007 - Disclaimer

ORBIFLY MET'MAP TEAM :

Programming & Development : Alexandra Zaïnal
Concept & original design : Baudouin d'Aumeries
Assistance for programming : Marc-Olivier Méhu
Technical & hardware support : Manuel Goepfert

Contact : metmap@orbifly.com




SOURCES & CREDITS :

   NOAA